Time;durP1;ratioP1;P1;durP2;ratioP2;P2;SDS_P1;SDS_P2;PMS_P1;PMS_P2;Temp;Humidity;BMP_temperature;BMP_pressure;BME280_temperature;BME280_humidity;BME280_pressure;Samples;Min_cycle;Max_cycle;Signal;HPM_P1;HPM_P2
2023/01/20 00:01:27;;;;;;;11.85;8.98;;;;;;;0.38;60.75;98508.41;5105820;28;20044;-73
2023/01/20 00:03:56;;;;;;;10.07;7.75;;;;;;;0.36;60.89;98497.19;5106005;28;20032;-74
2023/01/20 00:06:24;;;;;;;10.98;8.52;;;;;;;-3.00;60.67;97938.28;5105949;28;20046;-73
2023/01/20 00:08:52;;;;;;;11.77;8.55;;;;;;;0.33;60.93;98489.44;5105706;28;20036;-74
2023/01/20 00:11:19;;;;;;;11.10;7.90;;;;;;;0.27;60.98;98480.91;5105919;28;20044;-73
2023/01/20 00:13:46;;;;;;;9.38;8.15;;;;;;;0.30;61.03;98487.78;5104717;28;20036;-73
2023/01/20 00:16:14;;;;;;;10.43;8.40;;;;;;;0.31;60.92;98484.28;5105672;28;20048;-73
2023/01/20 00:18:41;;;;;;;12.10;8.57;;;;;;;0.31;61.12;98488.63;5105599;28;20036;-73
2023/01/20 00:21:11;;;;;;;10.27;8.50;;;;;;;-0.40;60.95;98373.34;5110384;28;20051;-73
2023/01/20 00:23:38;;;;;;;11.00;8.55;;;;;;;0.30;61.14;98495.59;5109713;28;20039;-74
2023/01/20 00:26:06;;;;;;;10.05;8.63;;;;;;;0.29;61.19;98507.78;5109621;28;20040;-74
2023/01/20 00:28:33;;;;;;;10.77;8.38;;;;;;;-0.33;61.01;98422.63;5109609;28;20043;-74
2023/01/20 00:31:10;;;;;;;10.13;8.20;;;;;;;0.23;61.18;98518.38;5109878;28;20043;-74
2023/01/20 00:33:39;;;;;;;10.95;9.15;;;;;;;0.21;61.19;98525.38;5109835;28;20195;-74
2023/01/20 00:36:06;;;;;;;9.57;8.20;;;;;;;0.20;61.28;98528.88;5109765;28;20284;-74
2023/01/20 00:38:33;;;;;;;10.73;8.65;;;;;;;0.20;61.29;98523.66;5109495;28;20050;-74
2023/01/20 00:41:00;;;;;;;11.50;8.55;;;;;;;0.13;61.12;98516.91;5108926;28;20057;-76
2023/01/20 00:43:27;;;;;;;12.45;9.20;;;;;;;0.17;61.32;98535.91;5109475;28;20032;-78
2023/01/20 00:45:54;;;;;;;12.20;9.43;;;;;;;0.14;61.47;98533.41;5108452;28;20040;-77
2023/01/20 00:48:21;;;;;;;11.20;9.25;;;;;;;0.17;61.31;98549.81;5108492;28;20040;-75
2023/01/20 00:50:49;;;;;;;11.73;8.85;;;;;;;0.16;61.24;98544.63;5109545;28;20280;-74
2023/01/20 00:53:16;;;;;;;14.55;9.77;;;;;;;0.15;61.34;98558.56;5108398;28;20214;-73
2023/01/20 00:55:43;;;;;;;13.23;8.70;;;;;;;0.15;61.23;98567.22;5108289;28;20032;-73
2023/01/20 00:58:10;;;;;;;15.57;11.05;;;;;;;0.16;61.10;98578.50;5109667;28;20040;-73
2023/01/20 01:00:37;;;;;;;38.10;22.40;;;;;;;0.22;61.92;98584.41;5109371;28;20291;-73
2023/01/20 01:03:04;;;;;;;34.53;20.73;;;;;;;0.28;62.07;98586.00;5108958;28;20066;-71
2023/01/20 01:05:32;;;;;;;21.15;14.45;;;;;;;-0.60;61.85;98439.81;5109483;28;20036;-74
2023/01/20 01:08:00;;;;;;;14.98;10.30;;;;;;;0.22;61.75;98592.22;5108101;28;20038;-74
2023/01/20 01:10:27;;;;;;;11.82;9.48;;;;;;;0.16;61.72;98595.00;5108103;28;20308;-75
2023/01/20 01:12:54;;;;;;;11.02;9.57;;;;;;;0.13;61.89;98596.81;5108837;28;20046;-72
2023/01/20 01:15:20;;;;;;;11.57;8.88;;;;;;;0.11;61.91;98599.47;5108763;28;20036;-73
2023/01/20 01:17:47;;;;;;;13.95;9.98;;;;;;;0.08;61.94;98601.28;5107812;28;20042;-73
2023/01/20 01:20:14;;;;;;;11.48;9.43;;;;;;;0.06;61.91;98609.16;5108935;28;20063;-73
2023/01/20 01:22:41;;;;;;;12.30;9.48;;;;;;;0.04;61.97;98610.94;5109181;28;20051;-73
2023/01/20 01:25:09;;;;;;;13.95;9.77;;;;;;;0.02;62.13;98612.72;5108536;28;20036;-73
2023/01/20 01:27:36;;;;;;;12.50;10.00;;;;;;;0.01;62.35;98615.38;5109069;28;20052;-73
2023/01/20 01:30:04;;;;;;;11.32;9.82;;;;;;;-0.01;62.14;98607.59;5106917;28;20039;-72
2023/01/20 01:32:31;;;;;;;11.35;9.82;;;;;;;-0.01;62.21;98604.97;5108649;28;20046;-72
2023/01/20 01:34:57;;;;;;;12.48;9.65;;;;;;;-0.04;62.05;98597.25;5108712;28;20059;-73
2023/01/20 01:37:24;;;;;;;10.93;9.52;;;;;;;-0.04;62.15;98582.47;5107554;28;20111;-73
2023/01/20 01:39:51;;;;;;;11.77;10.05;;;;;;;-0.14;62.12;98554.94;5108596;28;20039;-72
2023/01/20 01:42:23;;;;;;;10.75;9.15;;;;;;;-0.16;62.32;98548.91;5108788;28;20058;-73
2023/01/20 01:45:18;;;;;;;11.93;10.00;;;;;;;-0.05;62.55;98561.66;5108144;28;20032;-72
2023/01/20 01:47:48;;;;;;;12.40;9.35;;;;;;;-0.12;62.31;98567.91;5108484;28;20058;-73
2023/01/20 01:50:19;;;;;;;11.55;10.23;;;;;;;-0.15;62.60;98570.59;5108345;28;20036;-72
2023/01/20 01:52:50;;;;;;;10.70;9.15;;;;;;;-0.20;62.58;98557.69;5108630;28;20050;-72
2023/01/20 01:55:21;;;;;;;12.60;10.48;;;;;;;-0.21;62.64;98552.53;5108585;28;20042;-72
2023/01/20 01:57:50;;;;;;;10.57;9.40;;;;;;;-0.20;62.68;98542.06;5108257;28;20052;-72
2023/01/20 02:00:17;;;;;;;13.05;10.10;;;;;;;-0.32;62.48;98524.16;5108483;28;20044;-73
2023/01/20 02:02:45;;;;;;;12.80;9.85;;;;;;;-0.17;62.69;98547.19;5107766;28;20056;-73
2023/01/20 02:05:14;;;;;;;12.02;10.27;;;;;;;-0.20;62.67;98551.63;5107760;28;20052;-73
2023/01/20 02:07:44;;;;;;;13.05;10.95;;;;;;;-0.23;62.75;98547.34;5108329;28;20040;-73
2023/01/20 02:10:11;;;;;;;11.05;9.93;;;;;;;-0.22;62.50;98553.41;5108042;28;20044;-72
2023/01/20 02:12:38;;;;;;;13.57;10.43;;;;;;;-0.21;62.67;98555.97;5107739;28;20048;-73
2023/01/20 02:15:08;;;;;;;12.68;11.02;;;;;;;-0.22;62.78;98554.28;5107657;28;20039;-73
2023/01/20 02:17:41;;;;;;;14.57;11.63;;;;;;;-0.22;62.92;98554.28;5108138;28;20040;-72
2023/01/20 02:20:26;;;;;;;15.02;10.40;;;;;;;-0.23;63.19;98556.91;5108085;28;20342;-73
2023/01/20 02:22:57;;;;;;;11.38;9.18;;;;;;;-0.24;62.77;98544.78;5106658;28;20093;-73
2023/01/20 02:26:03;;;;;;;12.82;10.07;;;;;;;-0.24;63.08;98537.84;5107961;28;20050;-73
2023/01/20 02:29:10;;;;;;;11.15;9.50;;;;;;;-0.24;63.05;98537.84;5077347;28;20052;-73
2023/01/20 02:32:09;;;;;;;13.65;10.73;;;;;;;-0.23;63.09;98549.09;5099861;28;20055;-73
2023/01/20 02:34:42;;;;;;;10.98;9.20;;;;;;;-0.43;62.71;98514.00;5107237;28;20303;-73
2023/01/20 02:37:15;;;;;;;13.48;9.82;;;;;;;-0.23;62.79;98544.75;5106715;28;20295;-73
2023/01/20 02:39:49;;;;;;;13.50;9.48;;;;;;;-0.87;62.69;98452.59;5107165;28;20036;-72
2023/01/20 02:42:23;;;;;;;11.10;8.93;;;;;;;-0.22;62.65;98543.00;5107217;28;20199;-72
2023/01/20 02:44:57;;;;;;;10.23;9.13;;;;;;;-0.23;62.63;98542.16;5107211;28;20206;-73
2023/01/20 02:47:32;;;;;;;15.15;10.32;;;;;;;-0.22;62.72;98549.06;5106888;28;20310;-73
2023/01/20 02:50:09;;;;;;;10.93;9.27;;;;;;;-0.21;62.68;98547.31;5106825;28;20046;-73
2023/01/20 02:52:39;;;;;;;11.57;9.60;;;;;;;-0.22;62.66;98553.41;5107233;28;20055;-73
2023/01/20 02:55:09;;;;;;;11.15;9.43;;;;;;;-0.24;62.47;98548.25;5106004;28;20040;-73
2023/01/20 02:57:41;;;;;;;12.90;9.13;;;;;;;-0.24;62.55;98550.84;5107356;28;20052;-73
2023/01/20 03:00:13;;;;;;;12.10;9.40;;;;;;;-0.23;62.62;98562.13;5107303;28;20040;-73
2023/01/20 03:02:44;;;;;;;11.02;9.40;;;;;;;-0.21;62.45;98552.53;5105664;28;20060;-72
2023/01/20 03:05:15;;;;;;;10.93;9.18;;;;;;;-0.24;62.46;98557.81;5105757;28;20042;-72
2023/01/20 03:07:44;;;;;;;10.45;8.57;;;;;;;-0.67;62.42;98475.53;5106628;28;20048;-73
2023/01/20 03:10:16;;;;;;;9.98;8.70;;;;;;;-0.69;62.26;98487.75;5107167;28;20059;-73
2023/01/20 03:12:49;;;;;;;14.00;9.18;;;;;;;-0.24;62.26;98550.00;5107099;28;20044;-73
2023/01/20 03:15:21;;;;;;;10.82;8.38;;;;;;;-0.27;62.12;98552.69;5106524;28;20296;-73
2023/01/20 03:17:49;;;;;;;9.27;7.40;;;;;;;-0.32;62.24;98541.50;5107052;28;20059;-72
2023/01/20 03:20:17;;;;;;;10.48;8.52;;;;;;;-0.28;62.18;98541.41;5106383;28;20173;-72
2023/01/20 03:22:43;;;;;;;9.85;8.32;;;;;;;-0.29;62.29;98541.44;5106380;28;20036;-72
2023/01/20 03:25:13;;;;;;;9.82;8.82;;;;;;;-3.32;61.86;98033.16;5105966;28;20055;-71
2023/01/20 03:27:41;;;;;;;10.15;8.10;;;;;;;-0.30;62.10;98534.53;5105454;28;20032;-72
2023/01/20 03:30:13;;;;;;;10.93;9.23;;;;;;;-0.28;62.03;98535.34;5105376;28;20313;-72
2023/01/20 03:32:41;;;;;;;10.15;8.02;;;;;;;-0.26;61.97;98529.19;5106441;28;20054;-72
2023/01/20 03:35:10;;;;;;;9.77;7.43;;;;;;;-0.87;61.94;98410.97;5106683;28;20039;-72
2023/01/20 03:37:37;;;;;;;10.93;8.45;;;;;;;-0.25;61.88;98530.91;5106032;28;20204;-72
2023/01/20 03:40:05;;;;;;;9.35;8.35;;;;;;;-0.25;61.91;98523.09;5105218;28;20207;-72
2023/01/20 03:42:39;;;;;;;11.77;8.55;;;;;;;-2.99;61.70;98064.41;5106275;28;20093;-72
2023/01/20 03:45:10;;;;;;;10.88;8.30;;;;;;;-0.26;61.96;98526.59;5105113;28;20211;-73
2023/01/20 03:47:48;;;;;;;10.23;8.05;;;;;;;-2.90;61.75;98081.50;5104967;28;20334;-72
2023/01/20 03:50:29;;;;;;;11.50;9.10;;;;;;;-0.29;61.80;98521.47;5105084;28;20044;-73
2023/01/20 03:53:04;;;;;;;9.35;7.90;;;;;;;-0.26;61.96;98526.59;5106222;28;20044;-72
2023/01/20 03:55:36;;;;;;;9.52;7.93;;;;;;;-0.26;61.83;98529.19;5105123;28;20044;-73
2023/01/20 03:58:05;;;;;;;10.50;8.48;;;;;;;-0.24;61.79;98523.94;5106120;28;20048;-73
2023/01/20 04:00:36;;;;;;;8.77;7.32;;;;;;;-0.24;61.63;98526.56;5105763;28;20052;-72
2023/01/20 04:03:07;;;;;;;11.20;8.68;;;;;;;-0.24;61.75;98523.94;5104619;28;20060;-73
2023/01/20 04:05:37;;;;;;;9.00;8.07;;;;;;;-0.26;61.62;98516.19;5106173;28;20039;-73
2023/01/20 04:08:08;;;;;;;10.27;8.05;;;;;;;-0.89;61.55;98428.38;5105958;28;20048;-73
2023/01/20 04:10:38;;;;;;;12.63;8.80;;;;;;;-0.25;61.62;98517.88;5106194;28;20048;-73
2023/01/20 04:13:05;;;;;;;12.68;10.43;;;;;;;-0.23;61.71;98523.06;5105610;28;20210;-72
2023/01/20 04:15:36;;;;;;;9.88;8.07;;;;;;;-0.23;61.61;98525.66;5104806;28;20307;-73
2023/01/20 04:18:14;;;;;;;11.30;8.45;;;;;;;-0.40;61.44;98498.28;5105829;28;20052;-74
2023/01/20 04:20:43;;;;;;;10.80;8.57;;;;;;;-0.26;61.49;98529.19;5104493;28;20050;-74
2023/01/20 04:23:17;;;;;;;11.88;8.88;;;;;;;-0.27;61.71;98535.31;5105493;28;20047;-74
2023/01/20 04:25:44;;;;;;;10.65;9.55;;;;;;;-0.28;61.66;98544.00;5105420;28;20040;-73
2023/01/20 04:28:11;;;;;;;9.48;8.48;;;;;;;-0.29;61.67;98557.06;5106343;28;20212;-73
2023/01/20 04:30:38;;;;;;;10.40;9.10;;;;;;;-0.28;61.81;98563.97;5104636;28;20077;-73
2023/01/20 04:33:05;;;;;;;10.18;7.95;;;;;;;-0.32;61.71;98563.19;5105991;28;20044;-73
2023/01/20 04:35:31;;;;;;;10.43;8.57;;;;;;;-0.34;61.70;98579.75;5106015;28;20044;-73
2023/01/20 04:37:59;;;;;;;9.82;8.40;;;;;;;-0.40;61.83;98583.34;5105932;28;20044;-73
2023/01/20 04:40:26;;;;;;;10.32;8.48;;;;;;;-0.40;61.93;98591.16;5105633;28;20044;-73
2023/01/20 04:42:53;;;;;;;10.07;8.82;;;;;;;-0.55;61.74;98566.34;5105424;28;20048;-73
2023/01/20 04:45:20;;;;;;;12.40;8.68;;;;;;;-0.39;61.63;98588.53;5105824;28;20039;-73
2023/01/20 04:47:47;;;;;;;11.25;9.13;;;;;;;-0.40;61.58;98589.41;5087730;28;20036;-73
2023/01/20 04:50:15;;;;;;;11.30;9.85;;;;;;;-0.39;61.46;98593.72;5104454;28;20046;-73
2023/01/20 04:52:42;;;;;;;13.18;9.82;;;;;;;-0.39;61.43;98601.53;5105268;28;20040;-72
2023/01/20 04:55:11;;;;;;;13.50;9.95;;;;;;;-0.97;61.38;98520.47;5105273;28;20207;-73
2023/01/20 04:57:38;;;;;;;11.57;9.98;;;;;;;-0.42;61.51;98614.63;5105521;28;20046;-73
2023/01/20 05:00:07;;;;;;;12.25;10.57;;;;;;;-0.42;61.48;98632.84;5105735;28;20044;-73
2023/01/20 05:02:34;;;;;;;13.68;10.95;;;;;;;-0.45;61.63;98640.72;5104095;28;20211;-73
2023/01/20 05:05:00;;;;;;;11.55;9.77;;;;;;;-0.46;61.87;98641.63;5106512;28;20052;-73
2023/01/20 05:07:27;;;;;;;13.73;11.15;;;;;;;-1.21;61.89;98521.84;5109081;28;20032;-73
2023/01/20 05:09:54;;;;;;;12.63;10.15;;;;;;;-0.46;61.79;98653.78;5109400;28;20059;-73
2023/01/20 05:12:22;;;;;;;17.35;11.07;;;;;;;-0.47;61.96;98655.53;5109061;28;20322;-73
2023/01/20 05:14:49;;;;;;;13.57;11.05;;;;;;;-0.46;61.98;98666.81;5107943;28;20040;-73
2023/01/20 05:17:15;;;;;;;12.13;10.15;;;;;;;-0.49;62.10;98665.13;5107881;28;20032;-73
2023/01/20 05:19:43;;;;;;;13.02;11.20;;;;;;;-2.14;61.85;98389.50;5107891;28;20211;-73
2023/01/20 05:22:10;;;;;;;15.18;12.43;;;;;;;-0.48;62.16;98658.16;5109202;28;20051;-73
2023/01/20 05:24:36;;;;;;;14.48;10.27;;;;;;;-0.50;62.09;98654.75;5108902;28;20199;-73
2023/01/20 05:27:03;;;;;;;14.18;10.77;;;;;;;-0.52;62.44;98654.78;5108706;28;20195;-73
2023/01/20 05:29:32;;;;;;;14.20;11.63;;;;;;;-0.53;62.29;98653.06;5108699;28;20199;-73
2023/01/20 05:31:59;;;;;;;13.52;10.43;;;;;;;-0.55;62.40;98649.63;5108807;28;20052;-73
2023/01/20 05:34:25;;;;;;;12.65;10.45;;;;;;;-0.54;62.53;98650.50;5107533;28;20196;-73
2023/01/20 05:36:53;;;;;;;13.02;10.90;;;;;;;-0.55;62.43;98646.19;5108371;28;20079;-73
2023/01/20 05:39:20;;;;;;;13.43;11.02;;;;;;;-0.56;62.54;98650.53;5108355;28;20040;-73
2023/01/20 05:41:47;;;;;;;15.20;10.75;;;;;;;-0.57;62.74;98656.63;5107461;28;20044;-73
2023/01/20 05:44:14;;;;;;;13.57;10.40;;;;;;;-0.56;62.67;98660.09;5107590;28;20040;-73
2023/01/20 05:46:42;;;;;;;13.00;10.40;;;;;;;-0.57;62.71;98659.22;5108627;28;20192;-73
2023/01/20 05:49:10;;;;;;;14.38;10.32;;;;;;;-0.59;62.54;98665.34;5108122;28;20058;-73
2023/01/20 05:51:37;;;;;;;11.20;10.07;;;;;;;-0.62;62.54;98663.66;5107971;28;20086;-73
2023/01/20 05:54:04;;;;;;;13.98;10.25;;;;;;;-0.61;62.51;98668.00;5107084;28;20066;-73
2023/01/20 05:56:31;;;;;;;11.32;9.75;;;;;;;-0.64;62.58;98664.59;5108433;28;20057;-73
2023/01/20 05:58:58;;;;;;;11.75;10.55;;;;;;;-0.64;62.77;98664.59;5107785;28;20046;-73
2023/01/20 06:01:25;;;;;;;13.45;10.38;;;;;;;-0.63;62.58;98669.75;5107414;28;20039;-73
2023/01/20 06:03:53;;;;;;;12.98;10.50;;;;;;;-0.64;62.68;98667.19;5107793;28;20048;-73
2023/01/20 06:06:19;;;;;;;13.35;9.77;;;;;;;-0.61;62.48;98674.94;5107900;28;20043;-73
2023/01/20 06:08:48;;;;;;;12.30;10.05;;;;;;;-0.63;62.59;98664.56;5107919;28;20044;-73
2023/01/20 06:11:16;;;;;;;13.38;10.52;;;;;;;-0.62;62.47;98666.28;5106757;28;20036;-74
2023/01/20 06:13:43;;;;;;;14.02;9.70;;;;;;;-0.62;62.74;98663.66;5107582;28;20031;-73
2023/01/20 06:16:10;;;;;;;12.68;10.52;;;;;;;-0.61;62.57;98660.19;5107182;28;20040;-73
2023/01/20 06:18:37;;;;;;;12.63;10.93;;;;;;;-0.61;62.64;98657.56;5106191;28;20040;-73
2023/01/20 06:21:05;;;;;;;12.82;10.95;;;;;;;-0.62;62.63;98655.88;5107742;28;20044;-73
2023/01/20 06:23:32;;;;;;;14.18;11.43;;;;;;;-0.61;62.59;98652.38;5089783;28;20066;-73
2023/01/20 06:26:01;;;;;;;13.90;11.30;;;;;;;-0.58;62.51;98648.84;5107734;28;20052;-73
2023/01/20 06:28:28;;;;;;;15.68;10.52;;;;;;;-0.57;62.53;98651.41;5107159;28;20040;-73
2023/01/20 06:31:03;;;;;;;15.13;11.30;;;;;;;-0.58;62.71;98649.69;5106983;28;20290;-73
2023/01/20 06:33:30;;;;;;;11.55;9.48;;;;;;;-0.62;62.49;98648.06;5106464;28;20122;-73
2023/01/20 06:35:57;;;;;;;16.38;10.93;;;;;;;-1.04;62.38;98588.19;5106830;28;20036;-73
2023/01/20 06:38:28;;;;;;;12.75;8.95;;;;;;;-1.42;62.32;98541.34;5107366;28;20295;-73
2023/01/20 06:40:57;;;;;;;13.52;10.02;;;;;;;-0.54;62.48;98658.31;5107026;28;20047;-73
2023/01/20 06:43:24;;;;;;;12.55;9.73;;;;;;;-0.54;62.24;98663.50;5106977;28;20044;-73
2023/01/20 06:45:51;;;;;;;13.60;10.18;;;;;;;-0.55;62.45;98665.25;5107246;28;20040;-73
2023/01/20 06:48:18;;;;;;;13.40;11.23;;;;;;;-0.53;62.21;98660.00;5106683;28;20292;-73
2023/01/20 06:50:44;;;;;;;13.63;10.55;;;;;;;-0.52;62.38;98654.78;5106287;28;20040;-73
2023/01/20 06:53:11;;;;;;;12.95;9.93;;;;;;;-0.50;62.24;98655.59;5107220;28;20291;-72
2023/01/20 06:55:39;;;;;;;14.13;9.93;;;;;;;-0.50;62.09;98658.19;5107119;28;20047;-73
2023/01/20 06:58:06;;;;;;;13.90;10.20;;;;;;;-0.48;62.29;98656.41;5106835;28;20032;-73
2023/01/20 07:00:33;;;;;;;12.15;9.60;;;;;;;-0.49;62.24;98664.25;5106756;28;20036;-73
2023/01/20 07:02:59;;;;;;;11.88;10.25;;;;;;;-0.69;62.25;98629.13;5106655;28;20060;-73
2023/01/20 07:05:26;;;;;;;12.52;9.98;;;;;;;-0.50;62.43;98659.94;5107180;28;20052;-73
2023/01/20 07:07:53;;;;;;;13.38;10.80;;;;;;;-0.51;62.34;98656.50;5106497;28;20040;-73
2023/01/20 07:10:20;;;;;;;12.15;10.82;;;;;;;-0.48;62.21;98664.22;5105668;28;20036;-72
2023/01/20 07:12:48;;;;;;;13.88;11.15;;;;;;;-0.47;62.17;98665.94;5106500;28;20048;-72
2023/01/20 07:15:15;;;;;;;14.30;10.55;;;;;;;-0.45;61.94;98666.75;5107163;28;20055;-73
2023/01/20 07:17:41;;;;;;;11.63;9.95;;;;;;;-0.44;61.99;98659.81;5105483;28;20055;-73
2023/01/20 07:20:10;;;;;;;13.10;9.75;;;;;;;-0.43;61.96;98656.31;5105475;28;20058;-73
2023/01/20 07:22:36;;;;;;;12.80;9.63;;;;;;;-0.41;62.04;98663.22;5106259;28;20035;-73
2023/01/20 07:25:03;;;;;;;12.60;10.43;;;;;;;-0.41;61.89;98663.22;5105305;28;20047;-73
2023/01/20 07:27:30;;;;;;;11.32;10.15;;;;;;;-0.39;61.89;98670.97;5106279;28;20039;-73
2023/01/20 07:29:58;;;;;;;12.85;9.73;;;;;;;-0.38;61.85;98665.75;5105302;28;20044;-73
2023/01/20 07:32:25;;;;;;;13.63;10.48;;;;;;;-0.36;61.90;98670.91;5106345;28;20211;-73
2023/01/20 07:34:51;;;;;;;14.80;9.88;;;;;;;-0.34;61.89;98669.13;5106575;28;20047;-73
2023/01/20 07:37:18;;;;;;;9.88;8.30;;;;;;;-0.33;61.84;98668.25;5105256;28;20039;-73
2023/01/20 07:39:45;;;;;;;12.65;8.75;;;;;;;-0.29;61.84;98676.84;5104874;28;20070;-73
2023/01/20 07:42:12;;;;;;;12.02;9.25;;;;;;;-0.72;61.63;98597.09;5105404;28;20255;-73
2023/01/20 07:44:41;;;;;;;12.07;9.73;;;;;;;-0.21;61.75;98680.13;5105148;28;20047;-73
2023/01/20 07:47:11;;;;;;;10.95;9.18;;;;;;;-0.18;61.70;98688.72;5106394;28;20050;-73
2023/01/20 07:49:38;;;;;;;14.85;11.45;;;;;;;-0.16;61.54;98686.09;5106143;28;20319;-73
2023/01/20 07:52:05;;;;;;;13.52;9.02;;;;;;;-0.11;61.48;98702.47;5106317;28;20062;-74
2023/01/20 07:54:32;;;;;;;11.88;9.77;;;;;;;-0.07;61.51;98697.16;5106061;28;20279;-73
2023/01/20 07:56:58;;;;;;;14.23;10.27;;;;;;;0.00;61.40;98713.50;5105780;28;20051;-73
2023/01/20 07:59:27;;;;;;;12.63;10.13;;;;;;;0.02;61.35;98709.13;5106144;28;20039;-73
2023/01/20 08:01:54;;;;;;;12.48;9.45;;;;;;;-0.37;61.23;98648.38;5105740;28;20111;-73
2023/01/20 08:04:22;;;;;;;14.00;9.90;;;;;;;-0.72;61.19;98628.31;5106065;28;20048;-73
2023/01/20 08:06:49;;;;;;;13.93;9.98;;;;;;;0.14;61.10;98721.00;5104876;28;20042;-73
2023/01/20 08:09:16;;;;;;;11.00;9.45;;;;;;;0.15;60.96;98713.16;5105523;28;20089;-73
2023/01/20 08:11:43;;;;;;;12.10;8.77;;;;;;;0.02;61.01;98688.28;5105525;28;20052;-74
2023/01/20 08:14:10;;;;;;;12.85;10.70;;;;;;;-0.27;60.61;98642.06;5104563;28;20036;-73
2023/01/20 08:16:36;;;;;;;11.85;9.95;;;;;;;0.28;60.74;98730.22;5104813;28;20042;-73
2023/01/20 08:19:03;;;;;;;12.48;9.95;;;;;;;0.11;60.74;98701.09;5105798;28;20213;-73
2023/01/20 08:21:32;;;;;;;14.07;9.13;;;;;;;0.35;60.59;98730.06;5106104;28;20040;-73
2023/01/20 08:24:00;;;;;;;12.13;9.80;;;;;;;0.36;60.49;98739.59;5105912;28;20054;-73
2023/01/20 08:26:31;;;;;;;11.43;9.60;;;;;;;0.39;60.59;98734.31;5104749;28;20051;-73
2023/01/20 08:29:02;;;;;;;11.75;9.10;;;;;;;-0.18;60.44;98643.59;5104669;28;20311;-73
2023/01/20 08:31:29;;;;;;;12.75;9.65;;;;;;;0.46;60.49;98748.91;5105660;28;20208;-72
2023/01/20 08:33:57;;;;;;;12.52;9.50;;;;;;;0.50;60.30;98747.94;5106178;28;20036;-73
2023/01/20 08:36:27;;;;;;;10.43;8.40;;;;;;;0.54;60.22;98752.19;5105476;28;20048;-73
2023/01/20 08:38:57;;;;;;;12.32;9.23;;;;;;;0.54;60.10;98744.38;5105816;28;20062;-73
2023/01/20 08:41:26;;;;;;;13.10;9.90;;;;;;;0.58;60.28;98746.88;5108242;28;20042;-73
2023/01/20 08:43:54;;;;;;;11.63;8.75;;;;;;;0.65;60.15;98757.13;5110067;28;20036;-73
2023/01/20 08:46:22;;;;;;;14.98;9.73;;;;;;;0.65;59.99;98749.31;5108627;28;20047;-73
2023/01/20 08:48:50;;;;;;;10.95;8.82;;;;;;;0.54;59.89;98746.97;5108485;28;20043;-73
2023/01/20 08:51:20;;;;;;;12.70;9.65;;;;;;;0.69;59.88;98750.94;5109593;28;20032;-73
2023/01/20 08:53:47;;;;;;;10.70;8.55;;;;;;;0.71;59.72;98757.84;5092657;28;20040;-73
2023/01/20 08:56:16;;;;;;;13.68;9.27;;;;;;;0.73;59.60;98766.50;5109173;28;20043;-73
2023/01/20 08:58:44;;;;;;;12.85;9.70;;;;;;;0.77;59.85;98764.66;5108108;28;20062;-73
2023/01/20 09:01:12;;;;;;;13.32;10.32;;;;;;;0.80;59.52;98769.81;5109491;28;20192;-73
2023/01/20 09:03:40;;;;;;;11.40;9.27;;;;;;;0.82;59.46;98773.22;5109519;28;20116;-73
2023/01/20 09:06:08;;;;;;;10.52;9.30;;;;;;;0.83;59.44;98774.94;5109321;28;20050;-73
2023/01/20 09:08:35;;;;;;;10.32;8.48;;;;;;;0.85;59.37;98773.16;5108469;28;20044;-73
2023/01/20 09:11:04;;;;;;;11.48;9.00;;;;;;;-0.13;59.29;98610.50;5109763;28;20106;-73
2023/01/20 09:13:32;;;;;;;11.52;8.50;;;;;;;0.88;59.17;98776.53;5108327;28;20050;-73
2023/01/20 09:15:59;;;;;;;11.32;9.07;;;;;;;0.91;59.09;98780.81;5109461;28;20062;-73
2023/01/20 09:18:26;;;;;;;11.10;8.82;;;;;;;0.94;59.13;98775.53;5108999;28;20028;-73
2023/01/20 09:20:53;;;;;;;14.30;9.60;;;;;;;0.77;59.07;98749.88;5108878;28;20040;-74
2023/01/20 09:23:20;;;;;;;12.07;9.00;;;;;;;1.01;58.97;98782.31;5109303;28;20069;-74
2023/01/20 09:25:46;;;;;;;10.98;8.60;;;;;;;1.04;58.84;98781.38;5107522;28;20040;-73
2023/01/20 09:28:14;;;;;;;9.65;8.57;;;;;;;1.09;58.77;98782.97;5108779;28;20333;-74
2023/01/20 09:30:42;;;;;;;12.13;8.13;;;;;;;1.13;58.72;98774.16;5108741;28;20048;-74
2023/01/20 09:33:10;;;;;;;10.00;7.43;;;;;;;1.21;58.62;98776.56;5108348;28;20051;-74
2023/01/20 09:35:37;;;;;;;10.77;8.45;;;;;;;1.27;58.70;98765.94;5108640;28;20040;-74
2023/01/20 09:43:56;;;;;;;11.50;8.13;;;;;;;1.44;57.99;98771.56;5082671;28;20079;-72
2023/01/20 09:46:44;;;;;;;9.73;8.23;;;;;;;1.35;57.22;98747.47;5107334;28;20036;-73
2023/01/20 09:55:04;;;;;;;9.93;7.43;;;;;;;1.19;57.49;98710.50;5108087;28;20050;-73
2023/01/20 09:57:37;;;;;;;9.90;7.95;;;;;;;1.61;57.17;98778.09;5107342;28;20046;-72
2023/01/20 10:00:08;;;;;;;9.68;7.68;;;;;;;1.64;57.58;98778.03;5107944;28;20050;-73
2023/01/20 10:02:37;;;;;;;10.52;7.47;;;;;;;1.67;57.60;98772.72;5106994;28;20043;-73
2023/01/20 10:05:12;;;;;;;10.50;8.18;;;;;;;1.72;57.13;98773.44;5107009;28;20184;-73
2023/01/20 10:07:50;;;;;;;9.73;7.68;;;;;;;1.55;57.03;98740.78;5108238;28;20040;-73
2023/01/20 10:10:22;;;;;;;11.52;8.43;;;;;;;1.76;57.20;98762.84;5107760;28;20085;-73
2023/01/20 10:12:53;;;;;;;10.48;9.10;;;;;;;1.77;57.13;98761.09;5107642;28;20043;-72
2023/01/20 10:15:25;;;;;;;12.48;9.60;;;;;;;1.76;57.08;98760.25;5107813;28;20060;-72
2023/01/20 10:17:57;;;;;;;10.25;8.32;;;;;;;1.77;56.85;98759.34;5106726;28;20043;-73
2023/01/20 10:20:32;;;;;;;11.18;9.13;;;;;;;1.80;56.85;98758.41;5107628;28;20059;-73
2023/01/20 10:23:03;;;;;;;14.38;8.60;;;;;;;1.82;57.22;98759.22;5107393;28;20066;-73
2023/01/20 10:25:34;;;;;;;15.65;8.27;;;;;;;1.75;56.98;98747.22;5107897;28;20058;-73
2023/01/20 10:28:07;;;;;;;9.60;8.13;;;;;;;1.87;56.68;98765.16;5107303;28;20040;-73
2023/01/20 10:30:36;;;;;;;11.73;8.57;;;;;;;1.86;56.89;98756.47;5106462;28;20046;-73
2023/01/20 10:33:10;;;;;;;9.95;7.78;;;;;;;1.87;56.60;98759.94;5107319;28;20062;-73
2023/01/20 10:35:39;;;;;;;9.52;7.85;;;;;;;1.89;57.05;98763.34;5106460;28;20071;-72
2023/01/20 10:38:08;;;;;;;16.33;8.93;;;;;;;1.73;57.16;98735.97;5106481;28;20050;-72
2023/01/20 10:40:43;;;;;;;10.95;8.93;;;;;;;1.92;56.58;98770.25;5107627;28;20044;-72
2023/01/20 10:43:13;;;;;;;12.27;8.73;;;;;;;1.03;56.87;98636.97;5106362;28;20040;-73
2023/01/20 10:45:57;;;;;;;12.13;9.55;;;;;;;1.95;56.28;98755.31;5107017;28;20050;-73
2023/01/20 10:48:42;;;;;;;13.18;9.15;;;;;;;2.02;56.31;98766.47;5107454;28;20046;-72
2023/01/20 10:51:17;;;;;;;11.23;8.38;;;;;;;2.04;56.40;98754.19;5106422;28;20051;-73
2023/01/20 10:53:54;;;;;;;13.63;9.13;;;;;;;1.29;56.37;98643.22;5107405;28;20052;-73
2023/01/20 10:56:35;;;;;;;11.27;8.63;;;;;;;2.19;55.87;98748.50;5107096;28;20044;-73
2023/01/20 10:59:08;;;;;;;12.68;9.13;;;;;;;0.74;56.30;98491.72;5107091;28;20288;-73
2023/01/20 11:01:36;;;;;;;11.18;8.77;;;;;;;1.93;56.25;98689.19;5106598;28;20060;-73
2023/01/20 11:04:04;;;;;;;10.43;8.18;;;;;;;2.39;56.45;98738.25;5105620;28;20218;-73
2023/01/20 11:06:31;;;;;;;9.80;8.15;;;;;;;1.97;56.08;98656.81;5105837;28;20044;-73
2023/01/20 11:09:16;;;;;;;13.35;9.07;;;;;;;2.54;55.12;98732.53;5105538;28;20115;-73
2023/01/20 11:11:43;;;;;;;12.10;7.83;;;;;;;2.59;55.63;98731.53;5106434;28;20054;-73
2023/01/20 11:14:10;;;;;;;9.70;7.68;;;;;;;2.59;55.71;98726.31;5106300;28;20418;-73
2023/01/20 11:16:39;;;;;;;10.50;8.48;;;;;;;2.61;55.74;98730.56;5107019;28;20044;-73
2023/01/20 11:19:07;;;;;;;10.88;8.98;;;;;;;2.61;55.67;98729.72;5106380;28;20032;-73
2023/01/20 11:21:36;;;;;;;13.65;8.90;;;;;;;2.42;55.57;98685.00;5105376;28;20046;-73
2023/01/20 11:24:23;;;;;;;9.60;7.65;;;;;;;2.60;55.68;98707.94;5106652;28;20044;-73
2023/01/20 11:26:50;;;;;;;11.93;8.98;;;;;;;2.60;55.78;98707.09;5105366;28;20241;-73
2023/01/20 11:29:28;;;;;;;9.43;8.25;;;;;;;1.79;54.60;98579.03;5106027;28;20223;-73
2023/01/20 11:31:58;;;;;;;14.48;9.10;;;;;;;2.55;55.61;98733.41;5105718;28;20070;-73
2023/01/20 11:34:28;;;;;;;11.77;9.23;;;;;;;1.65;55.58;98571.63;5106214;28;20058;-73
2023/01/20 11:37:15;;;;;;;10.27;8.65;;;;;;;1.68;54.15;98574.13;5105147;28;20046;-73
2023/01/20 11:39:45;;;;;;;9.18;7.93;;;;;;;1.18;55.43;98495.59;5106063;28;20032;-73
2023/01/20 11:42:16;;;;;;;10.00;8.27;;;;;;;2.44;55.56;98720.66;5106302;28;20203;-73
2023/01/20 11:44:43;;;;;;;12.25;7.95;;;;;;;1.86;55.56;98636.25;5106839;28;20044;-73
2023/01/20 11:47:26;;;;;;;9.93;8.00;;;;;;;2.41;54.45;98727.75;5106050;28;20032;-73
2023/01/20 11:50:20;;;;;;;10.77;8.50;;;;;;;2.42;54.06;98708.53;5104975;28;20056;-73